createdAt,value
2018-11-21T00:00:05.250Z,47.93
2018-11-21T00:01:05.032Z,47.89
2018-11-21T00:02:05.093Z,47.95
2018-11-21T00:03:04.932Z,47.95
2018-11-21T00:04:05.169Z,47.97
2018-11-21T00:05:04.936Z,47.92
2018-11-21T00:06:04.933Z,47.95
2018-11-21T00:07:05.187Z,47.97
2018-11-21T00:08:05.094Z,47.97
2018-11-21T00:09:05.374Z,48.01
2018-11-21T00:10:05.171Z,48.05
2018-11-21T00:11:05.169Z,47.98
2018-11-21T00:12:05.369Z,48
2018-11-21T00:13:05.483Z,48.03
2018-11-21T00:14:04.862Z,48
2018-11-21T00:15:04.968Z,48
2018-11-21T00:16:05.343Z,48.02
2018-11-21T00:17:05.064Z,48.05
2018-11-21T00:18:05.195Z,48.03
2018-11-21T00:19:05.047Z,48.03
2018-11-21T00:20:05.219Z,48.02
2018-11-21T00:21:04.945Z,48.01
2018-11-21T00:22:05.199Z,47.99
2018-11-21T00:23:05.137Z,47.99
2018-11-21T00:24:05.501Z,48.08
2018-11-21T00:25:05.298Z,48
2018-11-21T00:26:05.489Z,48.03
2018-11-21T00:27:05.109Z,48
2018-11-21T00:28:05.148Z,48.01
2018-11-21T00:29:05.080Z,48.03
2018-11-21T00:30:05.193Z,48.04
2018-11-21T00:31:05.321Z,47.98
2018-11-21T00:32:05.196Z,48
2018-11-21T00:33:05.105Z,48.01
2018-11-21T00:34:05.537Z,48.03
2018-11-21T00:35:04.961Z,48.04
2018-11-21T00:36:05.171Z,48.04
2018-11-21T00:37:05.447Z,48.01
2018-11-21T00:38:05.663Z,48.03
2018-11-21T00:39:04.943Z,48.01
2018-11-21T00:40:05.084Z,48.07
2018-11-21T00:41:05.133Z,48.03
2018-11-21T00:42:04.910Z,48.02
2018-11-21T00:43:05.507Z,48.01
2018-11-21T00:44:05.169Z,48.04
2018-11-21T00:45:05.669Z,48.02
2018-11-21T00:46:05.209Z,47.99
2018-11-21T00:47:05.404Z,47.99
2018-11-21T00:48:05.017Z,48.04
2018-11-21T00:49:05.187Z,47.97
2018-11-21T00:50:05.113Z,47.99
2018-11-21T00:51:05.365Z,48.02
2018-11-21T00:52:05.126Z,48
2018-11-21T00:53:05.084Z,48.04
2018-11-21T00:54:05.142Z,48.03
2018-11-21T00:55:05.001Z,47.99
2018-11-21T00:56:05.073Z,47.99
2018-11-21T00:57:04.877Z,48.02
2018-11-21T00:58:05.086Z,48.01
2018-11-21T00:59:05.150Z,47.99
2018-11-21T01:00:04.951Z,47.99
2018-11-21T01:01:05.245Z,48.03
2018-11-21T01:02:05.276Z,48.03
2018-11-21T01:03:05.320Z,47.93
2018-11-21T01:04:04.948Z,47.94
2018-11-21T01:05:05.176Z,48.02
2018-11-21T01:06:05.288Z,48.05
2018-11-21T01:07:05.056Z,47.99
2018-11-21T01:08:05.360Z,47.98
2018-11-21T01:09:04.994Z,48.05
2018-11-21T01:10:05.111Z,48
2018-11-21T01:11:05.183Z,47.98
2018-11-21T01:12:05.187Z,48
2018-11-21T01:13:05.033Z,48.02
2018-11-21T01:14:05.014Z,47.98
2018-11-21T01:15:04.944Z,48
2018-11-21T01:16:05.129Z,47.98
2018-11-21T01:17:04.911Z,47.99
2018-11-21T01:18:05.052Z,47.98
2018-11-21T01:19:05.339Z,48.05
2018-11-21T01:20:05.427Z,48
2018-11-21T01:21:05.174Z,47.98
2018-11-21T01:22:05.075Z,48.07
2018-11-21T01:23:05.392Z,48.02
2018-11-21T01:24:04.960Z,48.04
2018-11-21T01:25:04.979Z,48
2018-11-21T01:26:05.434Z,48.05
2018-11-21T01:27:05.188Z,48.01
2018-11-21T01:28:05.155Z,47.99
2018-11-21T01:29:05.132Z,48.07
2018-11-21T01:30:05.097Z,48.05
2018-11-21T01:31:04.922Z,48.06
2018-11-21T01:32:05.128Z,48.05
2018-11-21T01:33:10.170Z,48.02
2018-11-21T01:34:05.000Z,48
2018-11-21T01:35:05.101Z,48.02
2018-11-21T01:36:05.158Z,48.05
2018-11-21T01:37:05.107Z,47.96
2018-11-21T01:38:05.068Z,48.03
2018-11-21T01:39:05.153Z,48.02
2018-11-21T01:40:05.395Z,48.07
2018-11-21T01:41:05.041Z,48.04
2018-11-21T01:42:05.099Z,48.05
2018-11-21T01:43:04.967Z,48.01
2018-11-21T01:44:05.133Z,48.06
2018-11-21T01:45:05.256Z,47.99
2018-11-21T01:46:05.080Z,48.02
2018-11-21T01:47:04.948Z,48.05
2018-11-21T01:48:05.021Z,48.01
2018-11-21T01:49:05.202Z,48.01
2018-11-21T01:50:05.016Z,48.01
2018-11-21T01:51:05.116Z,48.03
2018-11-21T01:52:05.411Z,48.02
2018-11-21T01:53:05.186Z,48.03
2018-11-21T01:54:05.185Z,48.06
2018-11-21T01:55:05.370Z,48.08
2018-11-21T01:56:05.118Z,48.05
2018-11-21T01:57:05.081Z,48.04
2018-11-21T01:58:05.150Z,48.04
2018-11-21T01:59:05.317Z,48.05
2018-11-21T02:00:05.410Z,47.98
2018-11-21T02:01:05.443Z,48.01
2018-11-21T02:02:05.160Z,48.07
2018-11-21T02:03:05.451Z,47.97
2018-11-21T02:04:05.304Z,48
2018-11-21T02:05:05.833Z,48.08
2018-11-21T02:06:05.146Z,48.06
2018-11-21T02:07:05.295Z,48.06
2018-11-21T02:08:05.160Z,48.06
2018-11-21T02:09:05.045Z,48.01
2018-11-21T02:10:04.974Z,48.05
2018-11-21T02:11:05.591Z,48.05
2018-11-21T02:12:05.819Z,48
2018-11-21T02:13:05.049Z,48.09
2018-11-21T02:14:05.126Z,48
2018-11-21T02:15:04.963Z,48.06
2018-11-21T02:16:05.059Z,48.08
2018-11-21T02:17:05.217Z,48.04
2018-11-21T02:18:05.049Z,48.06
2018-11-21T02:19:05.034Z,48.05
2018-11-21T02:20:05.142Z,48.02
2018-11-21T02:21:04.975Z,48.03
2018-11-21T02:22:05.286Z,48.01
2018-11-21T02:23:05.103Z,48.03
2018-11-21T02:24:05.187Z,47.99
2018-11-21T02:25:05.239Z,48.03
2018-11-21T02:26:04.956Z,48
2018-11-21T02:27:04.956Z,47.95
2018-11-21T02:28:05.219Z,48
2018-11-21T02:29:05.042Z,47.96
2018-11-21T02:30:05.036Z,47.98
2018-11-21T02:31:05.101Z,47.97
2018-11-21T02:32:05.209Z,48.01
2018-11-21T02:33:05.261Z,47.98
2018-11-21T02:34:05.475Z,48.01
2018-11-21T02:35:05.425Z,47.94
2018-11-21T02:36:05.053Z,47.99
2018-11-21T02:37:04.978Z,47.99
2018-11-21T02:38:05.050Z,47.97
2018-11-21T02:39:05.136Z,47.96
2018-11-21T02:40:05.348Z,47.98
2018-11-21T02:41:05.241Z,48.01
2018-11-21T02:42:05.069Z,48
2018-11-21T02:43:05.159Z,48.06
2018-11-21T02:44:05.115Z,48.08
2018-11-21T02:45:05.327Z,48.02
2018-11-21T02:46:04.969Z,48.02
2018-11-21T02:47:05.156Z,48.04
2018-11-21T02:48:05.180Z,48.07
2018-11-21T02:49:05.506Z,48.01
2018-11-21T02:50:04.923Z,47.99
2018-11-21T02:51:05.055Z,47.96
2018-11-21T02:52:05.532Z,47.98
2018-11-21T02:53:04.972Z,47.94
2018-11-21T02:54:05.122Z,47.92
2018-11-21T02:55:05.088Z,47.88
2018-11-21T02:56:05.004Z,47.93
2018-11-21T02:57:04.903Z,47.97
2018-11-21T02:58:05.266Z,47.99
2018-11-21T02:59:04.848Z,47.96
2018-11-21T03:00:05.254Z,47.94
2018-11-21T03:01:05.134Z,47.94
2018-11-21T03:02:04.928Z,47.93
2018-11-21T03:03:05.473Z,47.96
2018-11-21T03:04:04.982Z,47.97
2018-11-21T03:05:04.974Z,47.93
2018-11-21T03:06:04.927Z,47.9
2018-11-21T03:07:05.267Z,47.97
2018-11-21T03:08:05.002Z,47.91
2018-11-21T03:09:04.924Z,47.95
2018-11-21T03:10:05.233Z,47.93
2018-11-21T03:11:05.080Z,47.93
2018-11-21T03:12:05.118Z,47.95
2018-11-21T03:13:04.931Z,47.93
2018-11-21T03:14:04.949Z,47.96
2018-11-21T03:15:04.944Z,47.96
2018-11-21T03:16:05.775Z,47.97
2018-11-21T03:17:05.045Z,47.97
2018-11-21T03:18:05.161Z,47.91
2018-11-21T03:19:04.947Z,47.93
2018-11-21T03:20:04.983Z,48.01
2018-11-21T03:21:05.161Z,47.97
2018-11-21T03:22:04.991Z,47.93
2018-11-21T03:23:05.046Z,47.94
2018-11-21T03:24:04.867Z,47.97
2018-11-21T03:25:04.934Z,47.98
2018-11-21T03:26:04.906Z,47.95
2018-11-21T03:27:05.021Z,47.97
2018-11-21T03:28:04.888Z,47.95
2018-11-21T03:29:05.024Z,48.01
2018-11-21T03:30:05.059Z,47.91
2018-11-21T03:31:05.026Z,47.91
2018-11-21T03:32:05.167Z,47.98
2018-11-21T03:33:04.875Z,48.01
2018-11-21T03:34:05.015Z,47.96
2018-11-21T03:35:05.315Z,47.98
2018-11-21T03:36:05.316Z,47.96
2018-11-21T03:37:05.533Z,48.02
2018-11-21T03:38:05.413Z,48.01
2018-11-21T03:39:05.341Z,48.05
2018-11-21T03:40:04.968Z,48.03
2018-11-21T03:41:05.335Z,48.01
2018-11-21T03:42:04.951Z,48
2018-11-21T03:43:05.376Z,47.98
2018-11-21T03:44:04.944Z,47.96
2018-11-21T03:45:05.378Z,47.98
2018-11-21T03:46:04.898Z,48
2018-11-21T03:47:05.089Z,47.98
2018-11-21T03:48:04.961Z,47.97
2018-11-21T03:49:05.217Z,48
2018-11-21T03:50:05.525Z,47.95
2018-11-21T03:51:05.410Z,47.96
2018-11-21T03:52:05.344Z,47.97
2018-11-21T03:53:04.971Z,47.96
2018-11-21T03:54:05.509Z,47.98
2018-11-21T03:55:05.275Z,47.98
2018-11-21T03:56:05.039Z,47.99
2018-11-21T03:57:05.384Z,47.94
2018-11-21T03:58:04.914Z,47.97
2018-11-21T03:59:04.977Z,47.92
2018-11-21T04:00:05.168Z,47.96
2018-11-21T04:01:05.142Z,47.96
2018-11-21T04:02:05.060Z,47.98
2018-11-21T04:03:05.080Z,48
2018-11-21T04:04:05.094Z,47.96
2018-11-21T04:05:05.051Z,47.92
2018-11-21T04:06:05.305Z,47.87
2018-11-21T04:07:05.095Z,47.96
2018-11-21T04:08:04.852Z,47.99
2018-11-21T04:09:04.918Z,47.94
2018-11-21T04:10:05.086Z,47.95
2018-11-21T04:11:05.201Z,48
2018-11-21T04:12:05.282Z,47.96
2018-11-21T04:13:05.173Z,48.02
2018-11-21T04:14:05.252Z,47.94
2018-11-21T04:15:05.168Z,47.99
2018-11-21T04:16:05.142Z,47.98
2018-11-21T04:17:05.031Z,47.99
2018-11-21T04:18:05.308Z,47.96
2018-11-21T04:19:04.833Z,47.9
2018-11-21T04:20:04.922Z,47.91
2018-11-21T04:21:04.998Z,47.88
2018-11-21T04:22:04.933Z,47.9
2018-11-21T04:23:05.347Z,47.89
2018-11-21T04:24:04.998Z,47.97
2018-11-21T04:25:05.168Z,47.88
2018-11-21T04:26:05.123Z,47.94
2018-11-21T04:27:05.353Z,47.92
2018-11-21T04:28:04.931Z,47.9
2018-11-21T04:29:05.075Z,47.97
2018-11-21T04:30:05.193Z,47.95
2018-11-21T04:31:05.261Z,47.89
2018-11-21T04:32:05.309Z,47.92
2018-11-21T04:33:04.911Z,47.92
2018-11-21T04:34:05.137Z,47.88
2018-11-21T04:35:04.909Z,47.88
2018-11-21T04:36:05.203Z,47.83
2018-11-21T04:37:05.235Z,47.89
2018-11-21T04:38:05.095Z,47.89
2018-11-21T04:39:05.176Z,47.86
2018-11-21T04:40:05.156Z,47.92
2018-11-21T04:41:05.289Z,47.86
2018-11-21T04:42:05.012Z,47.92
2018-11-21T04:43:05.131Z,47.95
2018-11-21T04:44:05.215Z,47.99
2018-11-21T04:45:05.093Z,48.03
2018-11-21T04:46:05.108Z,48.01
2018-11-21T04:47:04.965Z,47.97
2018-11-21T04:48:05.084Z,48.06
2018-11-21T04:49:04.836Z,48.04
2018-11-21T04:50:04.970Z,48.03
2018-11-21T04:51:04.946Z,48.08
2018-11-21T04:52:05.091Z,48.15
2018-11-21T04:53:05.211Z,48.11
2018-11-21T04:54:04.915Z,48.17
2018-11-21T04:55:05.131Z,48.22
2018-11-21T04:56:04.861Z,48.18
2018-11-21T04:57:05.048Z,48.18
2018-11-21T04:58:04.868Z,48.21
2018-11-21T04:59:05.136Z,48.2
2018-11-21T05:00:04.875Z,48.2
2018-11-21T05:01:05.033Z,48.2
2018-11-21T05:02:04.818Z,48.22
2018-11-21T05:03:04.947Z,48.17
2018-11-21T05:04:05.070Z,48.27
2018-11-21T05:05:04.912Z,48.27
2018-11-21T05:06:05.101Z,48.28
2018-11-21T05:07:05.241Z,48.24
2018-11-21T05:08:05.019Z,48.25
2018-11-21T05:09:04.962Z,48.22
2018-11-21T05:10:05.081Z,48.23
2018-11-21T05:11:04.975Z,48.21
2018-11-21T05:12:05.175Z,48.23
2018-11-21T05:13:04.837Z,48.19
2018-11-21T05:14:05.235Z,48.2
2018-11-21T05:15:05.002Z,48.18
2018-11-21T05:16:05.308Z,48.21
2018-11-21T05:17:05.409Z,48.18
2018-11-21T05:18:04.967Z,48.21
2018-11-21T05:19:05.075Z,48.19
2018-11-21T05:20:04.800Z,48.15
2018-11-21T05:21:04.985Z,48.14
2018-11-21T05:22:05.197Z,48.15
2018-11-21T05:23:04.897Z,48.07
2018-11-21T05:24:05.348Z,48.11
2018-11-21T05:25:05.581Z,48.15
2018-11-21T05:26:05.226Z,48.11
2018-11-21T05:27:04.990Z,48.15
2018-11-21T05:28:05.427Z,48.14
2018-11-21T05:29:04.832Z,48.09
2018-11-21T05:30:04.965Z,48.15
2018-11-21T05:31:05.112Z,48.14
2018-11-21T05:32:05.191Z,48.11
2018-11-21T05:33:05.147Z,48.16
2018-11-21T05:34:05.085Z,48.11
2018-11-21T05:35:05.323Z,48.11
2018-11-21T05:36:05.707Z,48.13
2018-11-21T05:37:05.151Z,48.13
2018-11-21T05:38:05.052Z,48.17
2018-11-21T05:39:05.131Z,48.13
2018-11-21T05:40:04.957Z,48.13
2018-11-21T05:41:04.915Z,48.1
2018-11-21T05:42:05.382Z,48.14
2018-11-21T05:43:05.022Z,48.13
2018-11-21T05:44:04.986Z,48.07
2018-11-21T05:45:04.953Z,48.07
2018-11-21T05:46:05.064Z,48.11
2018-11-21T05:47:04.903Z,48.09
2018-11-21T05:48:05.196Z,48.11
2018-11-21T05:49:04.914Z,48.05
2018-11-21T05:50:04.835Z,48.13
2018-11-21T05:51:04.826Z,48.08
2018-11-21T05:52:04.856Z,48.11
2018-11-21T05:53:05.294Z,48.14
2018-11-21T05:54:04.949Z,48.1
2018-11-21T05:55:05.016Z,48.07
2018-11-21T05:56:05.372Z,48.07
2018-11-21T05:57:05.269Z,48.09
2018-11-21T05:58:05.296Z,48.07
2018-11-21T05:59:04.898Z,48.11
2018-11-21T06:00:04.784Z,48.12
2018-11-21T06:01:04.960Z,48.08
2018-11-21T06:02:05.172Z,48.06
2018-11-21T06:03:04.877Z,48.07
2018-11-21T06:04:05.026Z,48.08
2018-11-21T06:05:04.891Z,48.06
2018-11-21T06:06:10.184Z,48.08
2018-11-21T06:07:05.164Z,48.05
2018-11-21T06:08:04.750Z,48.06
2018-11-21T06:09:05.460Z,48.08
2018-11-21T06:10:04.901Z,48.04
2018-11-21T06:11:05.272Z,48.07
2018-11-21T06:12:04.914Z,48.06
2018-11-21T06:13:04.992Z,48.07
2018-11-21T06:14:05.270Z,48.07
2018-11-21T06:15:05.326Z,48.08
2018-11-21T06:16:04.874Z,48.17
2018-11-21T06:17:05.295Z,48.13
2018-11-21T06:18:05.089Z,48.21
2018-11-21T06:19:05.095Z,47.2
2018-11-21T06:20:04.925Z,47.01
2018-11-21T06:21:04.800Z,47.25
2018-11-21T06:22:05.166Z,47.57
2018-11-21T06:23:04.774Z,47.79
2018-11-21T06:24:04.821Z,47.84
2018-11-21T06:25:05.118Z,47.99
2018-11-21T06:26:05.729Z,47.97
2018-11-21T06:27:05.010Z,47.99
2018-11-21T06:28:04.912Z,48.06
2018-11-21T06:29:05.459Z,48
2018-11-21T06:30:04.903Z,48.07
2018-11-21T06:31:04.832Z,48.06
2018-11-21T06:32:04.902Z,48.1
2018-11-21T06:33:04.919Z,48.09
2018-11-21T06:34:05.056Z,48.11
2018-11-21T06:35:04.907Z,48.14
2018-11-21T06:36:05.189Z,48.16
2018-11-21T06:37:04.874Z,48.15
2018-11-21T06:38:04.964Z,48.19
2018-11-21T06:39:04.776Z,48.2
2018-11-21T06:40:04.974Z,48.21
2018-11-21T06:41:05.033Z,48.18
2018-11-21T06:42:04.764Z,48.2
2018-11-21T06:43:04.913Z,48.16
2018-11-21T06:44:04.988Z,48.16
2018-11-21T06:45:05.018Z,48.14
2018-11-21T06:46:05.054Z,48.16
2018-11-21T06:47:05.051Z,48.15
2018-11-21T06:48:05.136Z,48.15
2018-11-21T06:49:05.340Z,48.09
2018-11-21T06:50:05.175Z,48.15
2018-11-21T06:51:05.049Z,48.11
2018-11-21T06:52:04.830Z,48.16
2018-11-21T06:53:05.787Z,48.16
2018-11-21T06:54:05.260Z,48.18
2018-11-21T06:55:05.154Z,48.12
2018-11-21T06:56:04.988Z,48.15
2018-11-21T06:57:05.329Z,48.12
2018-11-21T06:58:05.207Z,48.11
2018-11-21T06:59:05.445Z,48.09
2018-11-21T07:00:05.116Z,48.09
2018-11-21T07:01:05.149Z,48.07
2018-11-21T07:02:04.923Z,48.06
2018-11-21T07:03:04.761Z,48.1
2018-11-21T07:04:04.922Z,48.04
2018-11-21T07:05:05.024Z,48.03
2018-11-21T07:06:05.307Z,48.05
2018-11-21T07:07:05.033Z,47.99
2018-11-21T07:08:04.970Z,48.04
2018-11-21T07:09:04.674Z,48.01
2018-11-21T07:10:04.898Z,48.05
2018-11-21T07:11:05.388Z,48.03
2018-11-21T07:12:04.897Z,48.03
2018-11-21T07:13:11.476Z,48
2018-11-21T07:14:07.660Z,47.97
2018-11-21T07:15:05.006Z,47.97
2018-11-21T07:16:05.242Z,47.98
2018-11-21T07:17:05.071Z,47.93
2018-11-21T07:18:04.781Z,48.01
2018-11-21T07:19:05.039Z,47.99
2018-11-21T07:20:05.429Z,47.98
2018-11-21T07:21:05.068Z,47.93
2018-11-21T07:22:05.115Z,47.97
2018-11-21T07:23:05.287Z,47.96
2018-11-21T07:24:04.819Z,47.93
2018-11-21T07:25:05.192Z,47.96
2018-11-21T07:26:05.099Z,47.98
2018-11-21T07:27:04.890Z,47.97
2018-11-21T07:28:04.982Z,47.93
2018-11-21T07:29:04.867Z,47.97
2018-11-21T07:30:05.427Z,47.96
2018-11-21T07:31:05.769Z,47.9
2018-11-21T07:32:05.817Z,47.95
2018-11-21T07:33:04.870Z,47.96
2018-11-21T07:34:04.925Z,47.93
2018-11-21T07:35:05.171Z,47.97
2018-11-21T07:36:05.194Z,47.97
2018-11-21T07:37:05.203Z,47.94
2018-11-21T07:38:05.063Z,47.97
2018-11-21T07:39:04.951Z,47.97
2018-11-21T07:40:04.892Z,47.96
2018-11-21T07:41:04.921Z,47.93
2018-11-21T07:42:05.219Z,48
2018-11-21T07:43:05.064Z,47.98
2018-11-21T07:44:04.857Z,47.98
2018-11-21T07:45:05.201Z,47.98
2018-11-21T07:46:05.048Z,47.96
2018-11-21T07:47:04.967Z,47.99
2018-11-21T07:48:05.202Z,47.95
2018-11-21T07:49:04.958Z,47.98
2018-11-21T07:50:05.103Z,47.99
2018-11-21T07:51:05.086Z,47.96
2018-11-21T07:52:05.201Z,47.94
2018-11-21T07:53:04.899Z,48
2018-11-21T07:54:04.796Z,47.96
2018-11-21T07:55:04.963Z,47.96
2018-11-21T07:56:04.719Z,48
2018-11-21T07:57:05.233Z,47.96
2018-11-21T07:58:04.891Z,47.96
2018-11-21T07:59:04.990Z,47.97
2018-11-21T08:00:05.077Z,47.95
2018-11-21T08:01:05.286Z,47.95
2018-11-21T08:02:04.877Z,47.98
2018-11-21T08:03:05.165Z,48.04
2018-11-21T08:04:04.885Z,48.01
2018-11-21T08:05:05.057Z,48.03
2018-11-21T08:06:04.967Z,47.99
2018-11-21T08:07:04.767Z,48.01
2018-11-21T08:08:04.882Z,48.01
2018-11-21T08:09:04.919Z,48.02
2018-11-21T08:10:05.122Z,48.01
2018-11-21T08:11:05.116Z,48.03
2018-11-21T08:12:04.959Z,48.02
2018-11-21T08:13:04.811Z,47.96
2018-11-21T08:14:05.073Z,47.99
2018-11-21T08:15:05.048Z,48.04
2018-11-21T08:16:04.761Z,48.04
2018-11-21T08:17:04.792Z,48.01
2018-11-21T08:18:04.966Z,47.94
2018-11-21T08:19:04.774Z,47.96
2018-11-21T08:20:05.081Z,48.01
2018-11-21T08:21:05.366Z,47.99
2018-11-21T08:22:05.096Z,47.92
2018-11-21T08:23:05.314Z,47.96
2018-11-21T08:24:06.023Z,47.98
2018-11-21T08:25:04.809Z,47.95
2018-11-21T08:26:05.053Z,47.99
2018-11-21T08:27:05.052Z,47.97
2018-11-21T08:28:05.712Z,47.96
2018-11-21T08:29:05.264Z,47.89
2018-11-21T08:30:05.209Z,47.93
2018-11-21T08:31:04.872Z,47.93
2018-11-21T08:32:05.278Z,47.96
2018-11-21T08:33:04.924Z,47.96
2018-11-21T08:34:04.895Z,47.93
2018-11-21T08:35:05.063Z,47.99
2018-11-21T08:36:05.914Z,47.91
2018-11-21T08:37:05.172Z,47.95
2018-11-21T08:38:05.021Z,47.97
2018-11-21T08:39:05.080Z,47.96
2018-11-21T08:40:05.161Z,47.96
2018-11-21T08:41:05.564Z,47.93
2018-11-21T08:42:04.962Z,47.97
2018-11-21T08:43:04.952Z,47.96
2018-11-21T08:44:04.924Z,47.95
2018-11-21T08:45:04.990Z,47.93
2018-11-21T08:46:04.942Z,47.94
2018-11-21T08:47:05.270Z,47.95
2018-11-21T08:48:04.811Z,47.97
2018-11-21T08:49:05.053Z,47.96
2018-11-21T08:50:04.938Z,47.97
2018-11-21T08:51:05.106Z,47.9
2018-11-21T08:52:04.920Z,47.89
2018-11-21T08:53:05.422Z,47.97
2018-11-21T08:54:04.711Z,47.96
2018-11-21T08:55:09.389Z,47.9
2018-11-21T08:56:05.115Z,47.98
2018-11-21T08:57:04.934Z,47.89
2018-11-21T08:58:04.938Z,47.9
2018-11-21T08:59:04.897Z,47.94
2018-11-21T09:00:04.819Z,47.93
2018-11-21T09:01:04.959Z,47.85
2018-11-21T09:02:04.764Z,47.89
2018-11-21T09:03:04.766Z,47.9
2018-11-21T09:04:04.774Z,47.87
2018-11-21T09:05:04.912Z,47.84
2018-11-21T09:06:05.343Z,47.85
2018-11-21T09:07:04.857Z,47.87
2018-11-21T09:08:05.316Z,47.86
2018-11-21T09:09:05.060Z,47.84
2018-11-21T09:10:05.047Z,47.82
2018-11-21T09:11:05.315Z,47.83
2018-11-21T09:12:09.110Z,47.83
2018-11-21T09:13:04.850Z,47.76
2018-11-21T09:14:05.164Z,47.79
2018-11-21T09:15:05.075Z,47.79
2018-11-21T09:16:05.192Z,47.77
2018-11-21T09:17:05.087Z,47.76
2018-11-21T09:18:04.899Z,47.79
2018-11-21T09:19:04.938Z,47.78
2018-11-21T09:20:05.099Z,47.76
2018-11-21T09:21:04.967Z,47.76
2018-11-21T09:22:04.909Z,47.76
2018-11-21T09:23:05.225Z,47.81
2018-11-21T09:24:04.984Z,47.76
2018-11-21T09:25:05.672Z,47.73
2018-11-21T09:26:05.043Z,47.8
2018-11-21T09:27:04.793Z,47.73
2018-11-21T09:28:04.979Z,47.73
2018-11-21T09:29:04.762Z,47.77
2018-11-21T09:30:04.873Z,47.75
2018-11-21T09:31:05.095Z,47.75
2018-11-21T09:32:04.812Z,47.79
2018-11-21T09:33:04.997Z,47.76
2018-11-21T09:34:04.837Z,47.76
2018-11-21T09:35:04.978Z,47.73
2018-11-21T09:36:05.032Z,47.75
2018-11-21T09:37:04.900Z,47.72
2018-11-21T09:38:04.803Z,47.76
2018-11-21T09:39:04.817Z,47.72
2018-11-21T09:40:05.056Z,47.75
2018-11-21T09:41:05.091Z,47.77
2018-11-21T09:42:04.981Z,47.8
2018-11-21T09:43:04.943Z,47.77
2018-11-21T09:44:04.917Z,47.78
2018-11-21T09:45:04.808Z,47.77
2018-11-21T09:46:04.919Z,47.78
2018-11-21T09:47:04.848Z,47.8
2018-11-21T09:48:04.912Z,47.79
2018-11-21T09:49:04.806Z,47.78
2018-11-21T09:50:04.808Z,47.85
2018-11-21T09:51:04.735Z,47.82
2018-11-21T09:52:04.869Z,47.77
2018-11-21T09:53:04.892Z,47.76
2018-11-21T09:54:04.800Z,47.83
2018-11-21T09:55:04.954Z,47.77
2018-11-21T09:56:04.842Z,47.77
2018-11-21T09:57:04.948Z,47.85
2018-11-21T09:58:04.997Z,47.82
2018-11-21T09:59:04.974Z,47.84
2018-11-21T10:00:04.859Z,47.84
2018-11-21T10:01:04.898Z,47.8
2018-11-21T10:02:05.031Z,47.79
2018-11-21T10:03:04.858Z,47.85
2018-11-21T10:04:05.823Z,47.83
2018-11-21T10:05:04.779Z,47.86
2018-11-21T10:06:04.853Z,47.8
2018-11-21T10:07:04.978Z,47.89
2018-11-21T10:08:05.037Z,47.9
2018-11-21T10:09:05.438Z,47.85
2018-11-21T10:10:05.172Z,47.83
2018-11-21T10:11:05.362Z,47.93
2018-11-21T10:12:05.071Z,47.9
2018-11-21T10:13:05.114Z,47.85
2018-11-21T10:14:05.025Z,47.85
2018-11-21T10:15:05.021Z,47.86
2018-11-21T10:16:04.741Z,47.89
2018-11-21T10:17:04.869Z,47.93
2018-11-21T10:18:05.206Z,47.93
2018-11-21T10:19:04.817Z,47.9
2018-11-21T10:20:04.992Z,47.9
2018-11-21T10:21:05.020Z,47.91
2018-11-21T10:22:05.040Z,47.9
2018-11-21T10:23:04.947Z,47.91
2018-11-21T10:24:04.960Z,47.96
2018-11-21T10:25:04.746Z,47.88
2018-11-21T10:26:04.806Z,47.91
2018-11-21T10:27:04.958Z,47.95
2018-11-21T10:28:05.029Z,47.89
2018-11-21T10:29:05.809Z,47.93
2018-11-21T10:30:04.791Z,47.89
2018-11-21T10:31:05.006Z,47.91
2018-11-21T10:32:04.809Z,47.91
2018-11-21T10:33:05.014Z,47.89
2018-11-21T10:34:04.804Z,47.86
2018-11-21T10:35:05.067Z,47.89
2018-11-21T10:36:04.924Z,47.93
2018-11-21T10:37:05.429Z,47.93
2018-11-21T10:38:04.707Z,47.91
2018-11-21T10:39:04.834Z,47.92
2018-11-21T10:40:04.724Z,47.91
2018-11-21T10:41:04.809Z,47.93
2018-11-21T10:42:04.965Z,47.91
2018-11-21T10:43:06.068Z,47.89
2018-11-21T10:44:04.903Z,47.91
2018-11-21T10:45:05.196Z,47.91
2018-11-21T10:46:04.943Z,47.91
2018-11-21T10:47:04.950Z,47.91
2018-11-21T10:48:04.812Z,47.94
2018-11-21T10:49:05.022Z,47.89
2018-11-21T10:50:05.241Z,47.89
2018-11-21T10:51:05.090Z,47.88
2018-11-21T10:52:05.058Z,47.91
2018-11-21T10:53:04.853Z,47.91
2018-11-21T10:54:05.031Z,47.96
2018-11-21T10:55:04.877Z,47.87
2018-11-21T10:56:04.951Z,47.88
2018-11-21T10:57:04.730Z,47.9
2018-11-21T10:58:05.302Z,47.88
2018-11-21T10:59:05.060Z,47.84
2018-11-21T11:00:04.830Z,47.92
2018-11-21T11:01:04.868Z,47.9
2018-11-21T11:02:05.113Z,47.94
2018-11-21T11:03:04.736Z,47.9
2018-11-21T11:04:04.898Z,47.89
2018-11-21T11:05:04.821Z,47.89
2018-11-21T11:06:04.789Z,47.94
2018-11-21T11:07:04.969Z,47.87
2018-11-21T11:08:04.847Z,47.89
2018-11-21T11:09:04.816Z,47.92
2018-11-21T11:10:04.915Z,47.88
2018-11-21T11:11:04.964Z,47.93
2018-11-21T11:12:04.743Z,47.84
2018-11-21T11:13:04.985Z,47.84
2018-11-21T11:14:05.005Z,47.86
2018-11-21T11:15:04.856Z,47.88
2018-11-21T11:16:04.720Z,47.83
2018-11-21T11:17:04.645Z,47.91
2018-11-21T11:18:04.683Z,47.96
2018-11-21T11:19:04.844Z,47.85
2018-11-21T11:20:08.993Z,47.91
2018-11-21T11:21:04.682Z,47.87
2018-11-21T11:22:04.997Z,47.84
2018-11-21T11:23:04.748Z,47.89
2018-11-21T11:24:04.820Z,47.84
2018-11-21T11:25:05.022Z,47.87
2018-11-21T11:26:04.747Z,47.88
2018-11-21T11:27:04.817Z,47.88
2018-11-21T11:28:04.764Z,47.87
2018-11-21T11:29:04.910Z,47.88
2018-11-21T11:30:04.757Z,47.85
2018-11-21T11:31:04.846Z,47.87
2018-11-21T11:32:05.160Z,47.89
2018-11-21T11:33:05.023Z,47.89
2018-11-21T11:34:04.677Z,47.88
2018-11-21T11:35:04.979Z,47.96
2018-11-21T11:36:04.605Z,47.9
2018-11-21T11:37:04.768Z,47.83
2018-11-21T11:38:05.034Z,47.87
2018-11-21T11:39:04.822Z,47.92
2018-11-21T11:40:04.988Z,47.93
2018-11-21T11:41:04.727Z,47.87
2018-11-21T11:42:04.858Z,47.9
2018-11-21T11:43:04.717Z,47.85
2018-11-21T11:44:04.797Z,47.88
2018-11-21T11:45:05.016Z,47.85
2018-11-21T11:46:04.832Z,47.81
2018-11-21T11:47:04.907Z,47.9
2018-11-21T11:48:04.937Z,47.89
2018-11-21T11:49:05.053Z,47.87
2018-11-21T11:50:04.745Z,47.87
2018-11-21T11:51:04.856Z,47.89
2018-11-21T11:52:04.719Z,47.87
2018-11-21T11:53:04.758Z,47.88
2018-11-21T11:54:05.267Z,47.89
2018-11-21T11:55:04.848Z,47.86
2018-11-21T11:56:04.957Z,47.79
2018-11-21T11:57:05.008Z,47.88
2018-11-21T11:58:04.866Z,47.88
2018-11-21T11:59:04.744Z,47.88
2018-11-21T12:00:04.787Z,47.9
2018-11-21T12:01:04.919Z,47.93
2018-11-21T12:02:04.778Z,47.89
2018-11-21T12:03:05.355Z,47.89
2018-11-21T12:04:04.842Z,47.95
2018-11-21T12:05:04.913Z,47.95
2018-11-21T12:06:05.051Z,47.9
2018-11-21T12:07:04.741Z,47.89
2018-11-21T12:08:04.762Z,47.89
2018-11-21T12:09:05.294Z,47.93
2018-11-21T12:10:05.116Z,47.9
2018-11-21T12:11:04.801Z,47.89
2018-11-21T12:12:05.294Z,47.87
2018-11-21T12:13:04.816Z,47.84
2018-11-21T12:14:04.921Z,47.91
2018-11-21T12:15:04.694Z,47.86
2018-11-21T12:16:05.080Z,47.8
2018-11-21T12:17:05.120Z,47.84
2018-11-21T12:18:05.062Z,47.88
2018-11-21T12:19:04.744Z,47.88
2018-11-21T12:20:04.807Z,47.76
2018-11-21T12:21:04.777Z,47.85
2018-11-21T12:22:04.818Z,47.82
2018-11-21T12:23:05.079Z,47.83
2018-11-21T12:24:05.391Z,47.86
2018-11-21T12:25:04.789Z,47.83
2018-11-21T12:26:10.470Z,47.87
2018-11-21T12:27:05.373Z,47.83
2018-11-21T12:28:05.077Z,47.83
2018-11-21T12:29:04.811Z,47.83
2018-11-21T12:30:05.328Z,47.83
2018-11-21T12:31:04.975Z,47.82
2018-11-21T12:32:04.917Z,47.83
2018-11-21T12:33:04.801Z,47.85
2018-11-21T12:34:04.798Z,47.85
2018-11-21T12:35:04.692Z,47.68
2018-11-21T12:36:04.695Z,47.84
2018-11-21T12:37:04.610Z,47.84
2018-11-21T12:38:04.722Z,47.84
2018-11-21T12:39:04.882Z,47.81
2018-11-21T12:40:04.978Z,47.82
2018-11-21T12:41:05.109Z,47.84
2018-11-21T12:42:05.021Z,47.82
2018-11-21T12:43:05.240Z,47.81
2018-11-21T12:44:04.741Z,47.85
2018-11-21T12:45:04.861Z,47.79
2018-11-21T12:46:04.826Z,47.83
2018-11-21T12:47:05.005Z,47.84
2018-11-21T12:48:05.152Z,47.84
2018-11-21T12:49:04.788Z,47.76
2018-11-21T12:50:04.802Z,47.82
2018-11-21T12:51:04.660Z,47.82
2018-11-21T12:52:04.804Z,47.81
2018-11-21T12:53:04.827Z,47.84
2018-11-21T12:54:04.779Z,47.84
2018-11-21T12:55:04.854Z,47.81
2018-11-21T12:56:04.727Z,47.79